KSNT

Stanley Ranger Station Airport

Stanley, Idaho, USA
METAR KSNT 231051Z AUTO 09003KT M16/M18 A3026 RMK AO1 SLP277 T11561178
Observed Flight Rules
Jan-23 @ 10:51 UTC (an hour ago)
Wind
90° at 3 knots
Temperatures Readings
Current -16°C / 3°F
Dewpoint -18°C / -0°F
Humidity 85%
Altimeter 30.26" Hg
Pressure 1027.7 hPa
Elevation 1980
METAR KSNT 231051Z AUTO 09003KT M16/M18 A3026 RMK AO1 SLP277 T11561178
Observed Flight Rules
Jan-23 @ 10:51 UTC
(an hour ago)
Wind
90° at 3 knots
Temperature Dewpoint
-16°C / 3°F -18°C / -0°F
Humidity Altimeter Pressure
85% 30.26" Hg 1027.7 hPa